Derwent, Ohio
Current Conditions -  °F | °C
As of 5:53 AM on Friday 19 Dec 2014 (Local Time) from KZZV Reporting Station
Overcast Overcast  
Wind Chill: 23°   Ceiling: 2300
Heat Index: 28°   Visibility: 10mi
Dew Point: 22°   Wind: 5mph
Humidity: 78%   Direction: 250°WSW
Pressure: 30.21"   Gusts: NA
Location:  39.92°N, 81.54°W
Report Text: KZZV 191053Z AUTO 25004KT 10SM OVC023 M02/M06 A3021 RMK AO2 SLP241 T10221056
Loading
Personal Weather Stations






























Interactive Weather Map New forecast layout! Learn more

10-Day Weather Forecast

Advertisements
Track Severe Weather on mobile